sensor_id;sensor_type;location;lat;lon;timestamp;P1;durP1;ratioP1;P2;durP2;ratioP2
37239;SDS011;23130;48.760;9.178;2022-08-19T00:01:48;15.65;;;13.48;;
37239;SDS011;23130;48.760;9.178;2022-08-19T00:04:16;16.65;;;13.32;;
37239;SDS011;23130;48.760;9.178;2022-08-19T00:06:44;17.92;;;13.63;;
37239;SDS011;23130;48.760;9.178;2022-08-19T00:09:12;16.27;;;13.10;;
37239;SDS011;23130;48.760;9.178;2022-08-19T00:11:39;19.58;;;14.27;;
37239;SDS011;23130;48.760;9.178;2022-08-19T00:14:05;16.08;;;12.85;;
37239;SDS011;23130;48.760;9.178;2022-08-19T00:16:33;18.25;;;13.60;;
37239;SDS011;23130;48.760;9.178;2022-08-19T00:18:59;15.98;;;13.32;;
37239;SDS011;23130;48.760;9.178;2022-08-19T00:21:25;16.63;;;13.88;;
37239;SDS011;23130;48.760;9.178;2022-08-19T00:23:51;18.00;;;15.00;;
37239;SDS011;23130;48.760;9.178;2022-08-19T00:26:18;16.20;;;13.65;;
37239;SDS011;23130;48.760;9.178;2022-08-19T00:28:44;19.95;;;14.90;;
37239;SDS011;23130;48.760;9.178;2022-08-19T00:31:09;17.40;;;13.60;;
37239;SDS011;23130;48.760;9.178;2022-08-19T00:33:35;18.83;;;14.25;;
37239;SDS011;23130;48.760;9.178;2022-08-19T00:36:02;17.55;;;13.73;;
37239;SDS011;23130;48.760;9.178;2022-08-19T00:38:31;20.33;;;15.05;;
37239;SDS011;23130;48.760;9.178;2022-08-19T00:40:57;16.45;;;13.77;;
37239;SDS011;23130;48.760;9.178;2022-08-19T00:43:24;17.55;;;13.98;;
37239;SDS011;23130;48.760;9.178;2022-08-19T00:45:51;16.85;;;13.38;;
37239;SDS011;23130;48.760;9.178;2022-08-19T00:48:18;18.45;;;13.55;;
37239;SDS011;23130;48.760;9.178;2022-08-19T00:50:44;19.70;;;14.13;;
37239;SDS011;23130;48.760;9.178;2022-08-19T00:53:12;15.98;;;13.45;;
37239;SDS011;23130;48.760;9.178;2022-08-19T00:55:43;17.52;;;14.32;;
37239;SDS011;23130;48.760;9.178;2022-08-19T00:58:12;16.95;;;14.18;;
37239;SDS011;23130;48.760;9.178;2022-08-19T01:00:41;17.30;;;13.88;;
37239;SDS011;23130;48.760;9.178;2022-08-19T01:03:10;18.58;;;14.20;;
37239;SDS011;23130;48.760;9.178;2022-08-19T01:05:37;18.10;;;14.32;;
37239;SDS011;23130;48.760;9.178;2022-08-19T01:08:05;19.40;;;14.82;;
37239;SDS011;23130;48.760;9.178;2022-08-19T01:10:33;18.67;;;15.27;;
37239;SDS011;23130;48.760;9.178;2022-08-19T01:13:07;15.25;;;13.65;;
37239;SDS011;23130;48.760;9.178;2022-08-19T01:15:34;19.65;;;15.88;;
37239;SDS011;23130;48.760;9.178;2022-08-19T01:18:06;18.95;;;14.90;;
37239;SDS011;23130;48.760;9.178;2022-08-19T01:20:34;15.65;;;13.65;;
37239;SDS011;23130;48.760;9.178;2022-08-19T01:23:00;19.10;;;14.32;;
37239;SDS011;23130;48.760;9.178;2022-08-19T01:25:32;17.75;;;14.80;;
37239;SDS011;23130;48.760;9.178;2022-08-19T01:28:06;16.67;;;14.07;;
37239;SDS011;23130;48.760;9.178;2022-08-19T01:30:33;16.83;;;13.15;;
37239;SDS011;23130;48.760;9.178;2022-08-19T01:33:00;16.48;;;13.95;;
37239;SDS011;23130;48.760;9.178;2022-08-19T01:35:27;15.90;;;14.15;;
37239;SDS011;23130;48.760;9.178;2022-08-19T01:37:56;17.30;;;14.43;;
37239;SDS011;23130;48.760;9.178;2022-08-19T01:40:26;18.30;;;14.18;;
37239;SDS011;23130;48.760;9.178;2022-08-19T01:42:56;19.17;;;15.77;;
37239;SDS011;23130;48.760;9.178;2022-08-19T01:45:22;17.67;;;14.95;;
37239;SDS011;23130;48.760;9.178;2022-08-19T01:47:49;20.20;;;14.52;;
37239;SDS011;23130;48.760;9.178;2022-08-19T01:50:15;20.02;;;15.35;;
37239;SDS011;23130;48.760;9.178;2022-08-19T01:52:42;18.85;;;15.30;;
37239;SDS011;23130;48.760;9.178;2022-08-19T01:55:10;21.50;;;15.93;;
37239;SDS011;23130;48.760;9.178;2022-08-19T01:57:37;19.60;;;15.43;;
37239;SDS011;23130;48.760;9.178;2022-08-19T02:00:07;18.98;;;15.30;;
37239;SDS011;23130;48.760;9.178;2022-08-19T02:02:36;21.17;;;16.52;;
37239;SDS011;23130;48.760;9.178;2022-08-19T02:05:01;24.00;;;16.00;;
37239;SDS011;23130;48.760;9.178;2022-08-19T02:07:27;19.58;;;15.00;;
37239;SDS011;23130;48.760;9.178;2022-08-19T02:09:54;18.48;;;14.63;;
37239;SDS011;23130;48.760;9.178;2022-08-19T02:12:20;20.27;;;16.35;;
37239;SDS011;23130;48.760;9.178;2022-08-19T02:14:46;19.17;;;15.07;;
37239;SDS011;23130;48.760;9.178;2022-08-19T02:17:12;18.02;;;15.00;;
37239;SDS011;23130;48.760;9.178;2022-08-19T02:19:38;18.63;;;14.38;;
37239;SDS011;23130;48.760;9.178;2022-08-19T02:22:03;16.45;;;13.85;;
37239;SDS011;23130;48.760;9.178;2022-08-19T02:24:29;19.23;;;14.60;;
37239;SDS011;23130;48.760;9.178;2022-08-19T02:26:55;19.20;;;15.52;;
37239;SDS011;23130;48.760;9.178;2022-08-19T02:29:20;23.92;;;16.27;;
37239;SDS011;23130;48.760;9.178;2022-08-19T02:31:46;24.13;;;17.45;;
37239;SDS011;23130;48.760;9.178;2022-08-19T02:34:12;21.52;;;16.70;;
37239;SDS011;23130;48.760;9.178;2022-08-19T02:36:37;20.90;;;16.75;;
37239;SDS011;23130;48.760;9.178;2022-08-19T02:39:03;23.42;;;16.63;;
37239;SDS011;23130;48.760;9.178;2022-08-19T02:41:30;21.60;;;16.30;;
37239;SDS011;23130;48.760;9.178;2022-08-19T02:43:58;23.63;;;17.05;;
37239;SDS011;23130;48.760;9.178;2022-08-19T02:46:27;23.25;;;17.13;;
37239;SDS011;23130;48.760;9.178;2022-08-19T02:48:55;23.90;;;17.67;;
37239;SDS011;23130;48.760;9.178;2022-08-19T02:51:28;25.40;;;17.30;;
37239;SDS011;23130;48.760;9.178;2022-08-19T02:53:56;28.92;;;18.67;;
37239;SDS011;23130;48.760;9.178;2022-08-19T02:56:22;23.10;;;17.77;;
37239;SDS011;23130;48.760;9.178;2022-08-19T02:58:50;21.90;;;16.77;;
37239;SDS011;23130;48.760;9.178;2022-08-19T03:04:13;27.35;;;20.13;;
37239;SDS011;23130;48.760;9.178;2022-08-19T03:06:42;24.75;;;19.55;;
37239;SDS011;23130;48.760;9.178;2022-08-19T03:09:09;22.38;;;17.05;;
37239;SDS011;23130;48.760;9.178;2022-08-19T03:11:35;25.83;;;19.88;;
37239;SDS011;23130;48.760;9.178;2022-08-19T03:14:02;24.95;;;18.65;;
37239;SDS011;23130;48.760;9.178;2022-08-19T03:16:30;24.90;;;19.52;;
37239;SDS011;23130;48.760;9.178;2022-08-19T03:18:57;25.60;;;19.63;;
37239;SDS011;23130;48.760;9.178;2022-08-19T03:21:27;29.38;;;21.52;;
37239;SDS011;23130;48.760;9.178;2022-08-19T03:23:55;30.52;;;21.55;;
37239;SDS011;23130;48.760;9.178;2022-08-19T03:26:22;33.25;;;23.33;;
37239;SDS011;23130;48.760;9.178;2022-08-19T03:28:48;31.52;;;21.20;;
37239;SDS011;23130;48.760;9.178;2022-08-19T03:31:15;27.88;;;20.52;;
37239;SDS011;23130;48.760;9.178;2022-08-19T03:33:43;31.33;;;22.23;;
37239;SDS011;23130;48.760;9.178;2022-08-19T03:36:13;26.63;;;20.80;;
37239;SDS011;23130;48.760;9.178;2022-08-19T03:38:44;30.38;;;22.10;;
37239;SDS011;23130;48.760;9.178;2022-08-19T03:41:16;30.15;;;22.30;;
37239;SDS011;23130;48.760;9.178;2022-08-19T03:43:47;29.65;;;21.73;;
37239;SDS011;23130;48.760;9.178;2022-08-19T03:46:18;32.20;;;21.80;;
37239;SDS011;23130;48.760;9.178;2022-08-19T03:48:46;29.03;;;22.67;;
37239;SDS011;23130;48.760;9.178;2022-08-19T03:51:16;27.05;;;21.23;;
37239;SDS011;23130;48.760;9.178;2022-08-19T03:53:44;31.38;;;22.67;;
37239;SDS011;23130;48.760;9.178;2022-08-19T03:56:11;33.50;;;22.85;;
37239;SDS011;23130;48.760;9.178;2022-08-19T03:58:38;28.48;;;21.80;;
37239;SDS011;23130;48.760;9.178;2022-08-19T04:01:08;30.95;;;22.40;;
37239;SDS011;23130;48.760;9.178;2022-08-19T04:03:35;36.72;;;24.40;;
37239;SDS011;23130;48.760;9.178;2022-08-19T04:06:24;31.35;;;24.42;;
37239;SDS011;23130;48.760;9.178;2022-08-19T04:08:52;31.63;;;23.77;;
37239;SDS011;23130;48.760;9.178;2022-08-19T04:11:23;31.77;;;24.20;;
37239;SDS011;23130;48.760;9.178;2022-08-19T04:13:51;30.65;;;23.67;;
37239;SDS011;23130;48.760;9.178;2022-08-19T04:16:19;36.25;;;25.73;;
37239;SDS011;23130;48.760;9.178;2022-08-19T04:18:46;35.80;;;25.52;;
37239;SDS011;23130;48.760;9.178;2022-08-19T04:21:19;32.25;;;24.13;;
37239;SDS011;23130;48.760;9.178;2022-08-19T04:23:46;31.73;;;24.48;;
37239;SDS011;23130;48.760;9.178;2022-08-19T04:26:17;34.22;;;24.60;;
37239;SDS011;23130;48.760;9.178;2022-08-19T04:28:45;34.08;;;24.95;;
37239;SDS011;23130;48.760;9.178;2022-08-19T04:31:15;33.13;;;24.27;;
37239;SDS011;23130;48.760;9.178;2022-08-19T04:33:43;30.88;;;22.35;;
37239;SDS011;23130;48.760;9.178;2022-08-19T04:36:15;36.08;;;26.02;;
37239;SDS011;23130;48.760;9.178;2022-08-19T04:38:45;33.22;;;24.98;;
37239;SDS011;23130;48.760;9.178;2022-08-19T04:41:12;31.85;;;25.00;;
37239;SDS011;23130;48.760;9.178;2022-08-19T04:43:56;33.00;;;23.70;;
37239;SDS011;23130;48.760;9.178;2022-08-19T04:46:22;31.05;;;23.30;;
37239;SDS011;23130;48.760;9.178;2022-08-19T04:48:47;31.95;;;25.00;;
37239;SDS011;23130;48.760;9.178;2022-08-19T04:51:13;33.00;;;24.45;;
37239;SDS011;23130;48.760;9.178;2022-08-19T04:53:40;33.63;;;24.65;;
37239;SDS011;23130;48.760;9.178;2022-08-19T04:56:11;36.35;;;26.35;;
37239;SDS011;23130;48.760;9.178;2022-08-19T04:58:39;32.95;;;24.55;;
37239;SDS011;23130;48.760;9.178;2022-08-19T05:01:08;31.00;;;24.00;;
37239;SDS011;23130;48.760;9.178;2022-08-19T05:03:36;34.47;;;25.15;;
37239;SDS011;23130;48.760;9.178;2022-08-19T05:06:10;35.70;;;24.67;;
37239;SDS011;23130;48.760;9.178;2022-08-19T05:08:37;39.17;;;24.67;;
37239;SDS011;23130;48.760;9.178;2022-08-19T05:11:16;35.95;;;24.83;;
37239;SDS011;23130;48.760;9.178;2022-08-19T05:13:45;31.77;;;23.27;;
37239;SDS011;23130;48.760;9.178;2022-08-19T05:16:13;28.85;;;22.20;;
37239;SDS011;23130;48.760;9.178;2022-08-19T05:18:40;33.80;;;23.95;;
37239;SDS011;23130;48.760;9.178;2022-08-19T05:21:24;30.88;;;24.25;;
37239;SDS011;23130;48.760;9.178;2022-08-19T05:24:10;29.92;;;24.63;;
37239;SDS011;23130;48.760;9.178;2022-08-19T05:26:39;33.90;;;24.33;;
37239;SDS011;23130;48.760;9.178;2022-08-19T05:29:06;30.92;;;23.67;;
37239;SDS011;23130;48.760;9.178;2022-08-19T05:31:33;30.67;;;23.33;;
37239;SDS011;23130;48.760;9.178;2022-08-19T05:34:00;32.90;;;25.10;;
37239;SDS011;23130;48.760;9.178;2022-08-19T05:36:26;35.08;;;25.17;;
37239;SDS011;23130;48.760;9.178;2022-08-19T05:38:52;31.92;;;23.08;;
37239;SDS011;23130;48.760;9.178;2022-08-19T05:41:19;30.60;;;22.95;;
37239;SDS011;23130;48.760;9.178;2022-08-19T05:43:54;32.22;;;23.60;;
37239;SDS011;23130;48.760;9.178;2022-08-19T05:46:21;31.38;;;24.23;;
37239;SDS011;23130;48.760;9.178;2022-08-19T05:48:47;32.97;;;25.05;;
37239;SDS011;23130;48.760;9.178;2022-08-19T05:51:13;34.95;;;25.17;;
37239;SDS011;23130;48.760;9.178;2022-08-19T05:53:41;31.40;;;23.65;;
37239;SDS011;23130;48.760;9.178;2022-08-19T05:56:08;31.80;;;23.85;;
37239;SDS011;23130;48.760;9.178;2022-08-19T05:58:35;35.42;;;23.05;;
37239;SDS011;23130;48.760;9.178;2022-08-19T06:01:02;34.30;;;23.05;;
37239;SDS011;23130;48.760;9.178;2022-08-19T06:03:32;34.70;;;24.15;;
37239;SDS011;23130;48.760;9.178;2022-08-19T06:05:58;33.60;;;23.25;;
37239;SDS011;23130;48.760;9.178;2022-08-19T06:08:24;31.77;;;22.70;;
37239;SDS011;23130;48.760;9.178;2022-08-19T06:10:51;31.65;;;23.23;;
37239;SDS011;23130;48.760;9.178;2022-08-19T06:13:18;31.50;;;23.00;;
37239;SDS011;23130;48.760;9.178;2022-08-19T06:15:44;31.08;;;20.98;;
37239;SDS011;23130;48.760;9.178;2022-08-19T06:18:11;29.52;;;22.83;;
37239;SDS011;23130;48.760;9.178;2022-08-19T06:20:38;36.75;;;24.83;;
37239;SDS011;23130;48.760;9.178;2022-08-19T06:23:03;31.23;;;23.73;;
37239;SDS011;23130;48.760;9.178;2022-08-19T06:25:29;35.83;;;24.30;;
37239;SDS011;23130;48.760;9.178;2022-08-19T06:27:55;30.63;;;23.48;;
37239;SDS011;23130;48.760;9.178;2022-08-19T06:30:20;25.67;;;21.15;;
37239;SDS011;23130;48.760;9.178;2022-08-19T06:32:47;33.28;;;24.05;;
37239;SDS011;23130;48.760;9.178;2022-08-19T06:35:13;33.55;;;22.98;;
37239;SDS011;23130;48.760;9.178;2022-08-19T06:37:39;30.13;;;21.98;;
37239;SDS011;23130;48.760;9.178;2022-08-19T06:40:05;30.63;;;23.48;;
37239;SDS011;23130;48.760;9.178;2022-08-19T06:42:33;32.90;;;25.42;;
37239;SDS011;23130;48.760;9.178;2022-08-19T06:44:59;31.13;;;24.10;;
37239;SDS011;23130;48.760;9.178;2022-08-19T06:47:28;34.25;;;24.98;;
37239;SDS011;23130;48.760;9.178;2022-08-19T06:49:54;36.20;;;26.63;;
37239;SDS011;23130;48.760;9.178;2022-08-19T06:52:25;34.28;;;24.35;;
37239;SDS011;23130;48.760;9.178;2022-08-19T06:54:50;37.13;;;26.23;;
37239;SDS011;23130;48.760;9.178;2022-08-19T06:57:16;34.45;;;25.13;;
37239;SDS011;23130;48.760;9.178;2022-08-19T06:59:41;36.17;;;25.85;;
37239;SDS011;23130;48.760;9.178;2022-08-19T07:02:07;35.28;;;25.67;;
37239;SDS011;23130;48.760;9.178;2022-08-19T07:04:33;36.30;;;25.17;;
37239;SDS011;23130;48.760;9.178;2022-08-19T07:07:05;33.05;;;24.85;;
37239;SDS011;23130;48.760;9.178;2022-08-19T07:09:34;37.92;;;27.58;;
37239;SDS011;23130;48.760;9.178;2022-08-19T07:12:02;33.30;;;25.35;;
37239;SDS011;23130;48.760;9.178;2022-08-19T07:14:29;32.70;;;23.13;;
37239;SDS011;23130;48.760;9.178;2022-08-19T07:16:55;35.72;;;24.35;;
37239;SDS011;23130;48.760;9.178;2022-08-19T07:19:22;34.17;;;23.95;;
37239;SDS011;23130;48.760;9.178;2022-08-19T07:21:52;28.92;;;23.77;;
37239;SDS011;23130;48.760;9.178;2022-08-19T07:24:18;28.75;;;23.08;;
37239;SDS011;23130;48.760;9.178;2022-08-19T07:26:49;32.47;;;23.00;;
37239;SDS011;23130;48.760;9.178;2022-08-19T07:29:18;32.55;;;23.77;;
37239;SDS011;23130;48.760;9.178;2022-08-19T07:31:48;31.58;;;22.70;;
37239;SDS011;23130;48.760;9.178;2022-08-19T07:34:14;30.23;;;22.73;;
37239;SDS011;23130;48.760;9.178;2022-08-19T07:36:40;30.92;;;24.38;;
37239;SDS011;23130;48.760;9.178;2022-08-19T07:39:16;28.40;;;21.52;;
37239;SDS011;23130;48.760;9.178;2022-08-19T07:41:44;34.83;;;24.38;;
37239;SDS011;23130;48.760;9.178;2022-08-19T07:44:11;33.25;;;24.25;;
37239;SDS011;23130;48.760;9.178;2022-08-19T07:46:39;31.58;;;23.45;;
37239;SDS011;23130;48.760;9.178;2022-08-19T07:49:09;32.10;;;23.33;;
37239;SDS011;23130;48.760;9.178;2022-08-19T07:51:44;32.60;;;22.60;;
37239;SDS011;23130;48.760;9.178;2022-08-19T07:54:21;28.17;;;22.48;;
37239;SDS011;23130;48.760;9.178;2022-08-19T07:56:48;31.67;;;23.20;;
37239;SDS011;23130;48.760;9.178;2022-08-19T07:59:15;27.50;;;22.20;;
37239;SDS011;23130;48.760;9.178;2022-08-19T08:01:43;25.95;;;21.00;;
37239;SDS011;23130;48.760;9.178;2022-08-19T08:04:09;29.25;;;20.60;;
37239;SDS011;23130;48.760;9.178;2022-08-19T08:06:53;28.02;;;21.40;;
37239;SDS011;23130;48.760;9.178;2022-08-19T08:09:39;28.40;;;21.45;;
37239;SDS011;23130;48.760;9.178;2022-08-19T08:12:08;25.23;;;20.88;;
37239;SDS011;23130;48.760;9.178;2022-08-19T08:14:44;27.58;;;21.30;;
37239;SDS011;23130;48.760;9.178;2022-08-19T08:17:13;30.25;;;21.83;;
37239;SDS011;23130;48.760;9.178;2022-08-19T08:19:40;32.15;;;21.92;;
37239;SDS011;23130;48.760;9.178;2022-08-19T08:22:07;33.45;;;24.02;;
37239;SDS011;23130;48.760;9.178;2022-08-19T08:24:54;31.75;;;23.65;;
37239;SDS011;23130;48.760;9.178;2022-08-19T08:27:37;43.22;;;25.77;;
37239;SDS011;23130;48.760;9.178;2022-08-19T08:30:05;33.22;;;25.17;;
37239;SDS011;23130;48.760;9.178;2022-08-19T08:32:36;33.25;;;24.60;;
37239;SDS011;23130;48.760;9.178;2022-08-19T08:35:06;33.92;;;26.50;;
37239;SDS011;23130;48.760;9.178;2022-08-19T08:37:34;38.00;;;26.13;;
37239;SDS011;23130;48.760;9.178;2022-08-19T08:40:03;34.22;;;25.42;;
37239;SDS011;23130;48.760;9.178;2022-08-19T08:42:33;37.58;;;25.52;;
37239;SDS011;23130;48.760;9.178;2022-08-19T08:45:06;36.55;;;24.63;;
37239;SDS011;23130;48.760;9.178;2022-08-19T08:47:40;31.05;;;23.73;;
37239;SDS011;23130;48.760;9.178;2022-08-19T08:50:25;35.20;;;24.05;;
37239;SDS011;23130;48.760;9.178;2022-08-19T08:53:01;34.17;;;23.73;;
37239;SDS011;23130;48.760;9.178;2022-08-19T08:55:30;33.90;;;24.40;;
37239;SDS011;23130;48.760;9.178;2022-08-19T08:58:03;36.28;;;24.98;;
37239;SDS011;23130;48.760;9.178;2022-08-19T09:00:34;33.88;;;24.48;;
37239;SDS011;23130;48.760;9.178;2022-08-19T09:03:03;34.30;;;23.70;;
37239;SDS011;23130;48.760;9.178;2022-08-19T09:11:13;33.83;;;22.38;;
37239;SDS011;23130;48.760;9.178;2022-08-19T09:13:49;30.85;;;24.10;;
37239;SDS011;23130;48.760;9.178;2022-08-19T09:16:33;34.25;;;23.92;;
37239;SDS011;23130;48.760;9.178;2022-08-19T09:19:03;30.35;;;23.13;;
37239;SDS011;23130;48.760;9.178;2022-08-19T09:21:30;32.30;;;23.42;;
37239;SDS011;23130;48.760;9.178;2022-08-19T09:23:56;32.25;;;23.08;;
37239;SDS011;23130;48.760;9.178;2022-08-19T09:26:23;29.15;;;22.77;;
37239;SDS011;23130;48.760;9.178;2022-08-19T09:28:50;30.67;;;22.55;;
37239;SDS011;23130;48.760;9.178;2022-08-19T09:31:18;24.98;;;20.67;;
37239;SDS011;23130;48.760;9.178;2022-08-19T09:33:49;29.60;;;21.98;;
37239;SDS011;23130;48.760;9.178;2022-08-19T09:36:16;27.58;;;21.88;;
37239;SDS011;23130;48.760;9.178;2022-08-19T09:38:44;26.02;;;20.75;;
37239;SDS011;23130;48.760;9.178;2022-08-19T09:41:11;24.85;;;20.23;;
37239;SDS011;23130;48.760;9.178;2022-08-19T09:43:39;24.63;;;18.45;;
37239;SDS011;23130;48.760;9.178;2022-08-19T09:46:06;23.88;;;19.15;;
37239;SDS011;23130;48.760;9.178;2022-08-19T09:48:34;26.00;;;19.30;;
37239;SDS011;23130;48.760;9.178;2022-08-19T09:51:11;24.90;;;18.38;;
37239;SDS011;23130;48.760;9.178;2022-08-19T09:53:40;24.90;;;17.60;;
37239;SDS011;23130;48.760;9.178;2022-08-19T09:56:07;22.77;;;18.23;;
37239;SDS011;23130;48.760;9.178;2022-08-19T09:58:34;21.67;;;16.95;;
37239;SDS011;23130;48.760;9.178;2022-08-19T10:01:00;20.67;;;17.48;;
37239;SDS011;23130;48.760;9.178;2022-08-19T10:03:28;22.35;;;16.90;;
37239;SDS011;23130;48.760;9.178;2022-08-19T10:05:55;20.70;;;16.98;;
37239;SDS011;23130;48.760;9.178;2022-08-19T10:08:24;23.30;;;16.63;;
37239;SDS011;23130;48.760;9.178;2022-08-19T10:10:51;18.95;;;16.13;;
37239;SDS011;23130;48.760;9.178;2022-08-19T10:13:18;20.08;;;16.90;;
37239;SDS011;23130;48.760;9.178;2022-08-19T10:15:51;21.42;;;15.75;;
37239;SDS011;23130;48.760;9.178;2022-08-19T10:18:18;20.10;;;16.05;;
37239;SDS011;23130;48.760;9.178;2022-08-19T10:20:46;21.80;;;16.13;;
37239;SDS011;23130;48.760;9.178;2022-08-19T10:23:13;20.65;;;16.05;;
37239;SDS011;23130;48.760;9.178;2022-08-19T10:25:40;22.95;;;15.35;;
37239;SDS011;23130;48.760;9.178;2022-08-19T10:28:06;18.17;;;15.32;;
37239;SDS011;23130;48.760;9.178;2022-08-19T10:30:32;18.08;;;16.23;;
37239;SDS011;23130;48.760;9.178;2022-08-19T10:33:00;21.05;;;15.57;;
37239;SDS011;23130;48.760;9.178;2022-08-19T10:35:25;21.23;;;15.05;;
37239;SDS011;23130;48.760;9.178;2022-08-19T10:37:53;17.20;;;15.38;;
37239;SDS011;23130;48.760;9.178;2022-08-19T10:40:18;19.42;;;15.70;;
37239;SDS011;23130;48.760;9.178;2022-08-19T10:42:44;18.92;;;15.68;;
37239;SDS011;23130;48.760;9.178;2022-08-19T10:45:10;20.90;;;15.95;;
37239;SDS011;23130;48.760;9.178;2022-08-19T10:47:36;22.10;;;16.02;;
37239;SDS011;23130;48.760;9.178;2022-08-19T10:50:02;19.30;;;14.50;;
37239;SDS011;23130;48.760;9.178;2022-08-19T10:52:47;16.98;;;13.73;;
37239;SDS011;23130;48.760;9.178;2022-08-19T10:55:14;17.67;;;14.20;;
37239;SDS011;23130;48.760;9.178;2022-08-19T10:57:58;16.90;;;13.27;;
37239;SDS011;23130;48.760;9.178;2022-08-19T11:00:24;16.27;;;12.63;;
37239;SDS011;23130;48.760;9.178;2022-08-19T11:02:50;18.65;;;13.00;;
37239;SDS011;23130;48.760;9.178;2022-08-19T11:05:16;15.10;;;12.18;;
37239;SDS011;23130;48.760;9.178;2022-08-19T11:07:42;14.90;;;11.23;;
37239;SDS011;23130;48.760;9.178;2022-08-19T11:10:09;19.83;;;12.18;;
37239;SDS011;23130;48.760;9.178;2022-08-19T11:12:37;15.85;;;11.30;;
37239;SDS011;23130;48.760;9.178;2022-08-19T11:15:06;13.02;;;10.98;;
37239;SDS011;23130;48.760;9.178;2022-08-19T11:17:34;15.68;;;11.45;;
37239;SDS011;23130;48.760;9.178;2022-08-19T11:20:01;14.75;;;11.50;;
37239;SDS011;23130;48.760;9.178;2022-08-19T11:22:29;15.38;;;11.27;;
37239;SDS011;23130;48.760;9.178;2022-08-19T11:24:55;12.80;;;11.43;;
37239;SDS011;23130;48.760;9.178;2022-08-19T11:27:20;14.48;;;11.10;;
37239;SDS011;23130;48.760;9.178;2022-08-19T11:29:46;16.42;;;11.88;;
37239;SDS011;23130;48.760;9.178;2022-08-19T11:32:12;14.93;;;11.65;;
37239;SDS011;23130;48.760;9.178;2022-08-19T11:34:38;15.00;;;11.10;;
37239;SDS011;23130;48.760;9.178;2022-08-19T11:37:04;15.65;;;11.25;;
37239;SDS011;23130;48.760;9.178;2022-08-19T11:39:31;11.45;;;10.30;;
37239;SDS011;23130;48.760;9.178;2022-08-19T11:41:59;12.07;;;9.68;;
37239;SDS011;23130;48.760;9.178;2022-08-19T11:44:26;12.57;;;10.70;;
37239;SDS011;23130;48.760;9.178;2022-08-19T11:46:55;14.70;;;10.38;;
37239;SDS011;23130;48.760;9.178;2022-08-19T11:49:21;15.18;;;9.80;;
37239;SDS011;23130;48.760;9.178;2022-08-19T11:51:47;11.70;;;10.50;;
37239;SDS011;23130;48.760;9.178;2022-08-19T11:54:14;14.65;;;10.73;;
37239;SDS011;23130;48.760;9.178;2022-08-19T11:56:41;13.30;;;10.45;;
37239;SDS011;23130;48.760;9.178;2022-08-19T11:59:07;11.85;;;10.30;;
37239;SDS011;23130;48.760;9.178;2022-08-19T12:01:33;10.93;;;9.63;;
37239;SDS011;23130;48.760;9.178;2022-08-19T12:03:59;11.57;;;9.88;;
37239;SDS011;23130;48.760;9.178;2022-08-19T12:06:29;15.57;;;9.88;;
37239;SDS011;23130;48.760;9.178;2022-08-19T12:08:57;11.95;;;9.77;;
37239;SDS011;23130;48.760;9.178;2022-08-19T12:11:24;12.82;;;10.55;;
37239;SDS011;23130;48.760;9.178;2022-08-19T12:13:50;10.27;;;8.65;;
37239;SDS011;23130;48.760;9.178;2022-08-19T12:16:18;12.50;;;8.93;;
37239;SDS011;23130;48.760;9.178;2022-08-19T12:18:48;11.35;;;9.20;;
37239;SDS011;23130;48.760;9.178;2022-08-19T12:21:16;13.57;;;10.68;;
37239;SDS011;23130;48.760;9.178;2022-08-19T12:23:48;11.50;;;9.75;;
37239;SDS011;23130;48.760;9.178;2022-08-19T12:26:15;10.77;;;8.80;;
37239;SDS011;23130;48.760;9.178;2022-08-19T12:28:41;10.45;;;9.35;;
37239;SDS011;23130;48.760;9.178;2022-08-19T12:31:07;12.75;;;9.00;;
37239;SDS011;23130;48.760;9.178;2022-08-19T12:33:34;12.02;;;9.63;;
37239;SDS011;23130;48.760;9.178;2022-08-19T12:36:00;12.07;;;9.73;;
37239;SDS011;23130;48.760;9.178;2022-08-19T12:38:28;10.77;;;9.65;;
37239;SDS011;23130;48.760;9.178;2022-08-19T12:40:54;12.35;;;9.05;;
37239;SDS011;23130;48.760;9.178;2022-08-19T12:43:20;12.07;;;10.57;;
37239;SDS011;23130;48.760;9.178;2022-08-19T12:45:46;13.38;;;9.85;;
37239;SDS011;23130;48.760;9.178;2022-08-19T12:48:13;14.20;;;10.40;;
37239;SDS011;23130;48.760;9.178;2022-08-19T12:50:42;12.48;;;10.32;;
37239;SDS011;23130;48.760;9.178;2022-08-19T12:55:38;10.43;;;9.02;;
37239;SDS011;23130;48.760;9.178;2022-08-19T12:58:05;10.27;;;9.15;;
37239;SDS011;23130;48.760;9.178;2022-08-19T13:00:30;15.18;;;11.18;;
37239;SDS011;23130;48.760;9.178;2022-08-19T13:02:58;12.13;;;10.18;;
37239;SDS011;23130;48.760;9.178;2022-08-19T13:05:25;13.52;;;11.73;;
37239;SDS011;23130;48.760;9.178;2022-08-19T13:07:54;15.35;;;11.13;;
37239;SDS011;23130;48.760;9.178;2022-08-19T13:10:22;16.95;;;12.55;;
37239;SDS011;23130;48.760;9.178;2022-08-19T13:12:50;16.15;;;14.10;;
37239;SDS011;23130;48.760;9.178;2022-08-19T13:15:17;19.40;;;15.25;;
37239;SDS011;23130;48.760;9.178;2022-08-19T13:17:47;18.27;;;15.35;;
37239;SDS011;23130;48.760;9.178;2022-08-19T13:20:14;21.63;;;16.10;;
37239;SDS011;23130;48.760;9.178;2022-08-19T13:22:43;23.23;;;17.92;;
37239;SDS011;23130;48.760;9.178;2022-08-19T13:25:10;25.08;;;20.25;;
37239;SDS011;23130;48.760;9.178;2022-08-19T13:27:37;27.13;;;21.75;;
37239;SDS011;23130;48.760;9.178;2022-08-19T13:30:04;26.02;;;21.60;;
37239;SDS011;23130;48.760;9.178;2022-08-19T13:32:50;29.17;;;23.35;;
37239;SDS011;23130;48.760;9.178;2022-08-19T13:35:34;32.03;;;24.40;;
37239;SDS011;23130;48.760;9.178;2022-08-19T13:37:59;36.25;;;26.55;;
37239;SDS011;23130;48.760;9.178;2022-08-19T13:40:29;33.88;;;25.55;;
37239;SDS011;23130;48.760;9.178;2022-08-19T13:42:56;31.60;;;24.95;;
37239;SDS011;23130;48.760;9.178;2022-08-19T13:45:23;32.42;;;25.67;;
37239;SDS011;23130;48.760;9.178;2022-08-19T13:47:50;34.55;;;26.48;;
37239;SDS011;23130;48.760;9.178;2022-08-19T13:50:19;36.13;;;25.08;;
37239;SDS011;23130;48.760;9.178;2022-08-19T13:52:47;34.63;;;27.38;;
37239;SDS011;23130;48.760;9.178;2022-08-19T13:55:14;36.60;;;26.88;;
37239;SDS011;23130;48.760;9.178;2022-08-19T13:57:40;37.53;;;28.30;;
37239;SDS011;23130;48.760;9.178;2022-08-19T14:00:10;37.53;;;27.98;;
37239;SDS011;23130;48.760;9.178;2022-08-19T14:02:38;40.03;;;30.45;;
37239;SDS011;23130;48.760;9.178;2022-08-19T14:05:05;42.20;;;30.48;;
37239;SDS011;23130;48.760;9.178;2022-08-19T14:07:33;41.88;;;31.13;;
37239;SDS011;23130;48.760;9.178;2022-08-19T14:09:59;40.15;;;30.42;;
37239;SDS011;23130;48.760;9.178;2022-08-19T14:12:24;43.28;;;33.15;;
37239;SDS011;23130;48.760;9.178;2022-08-19T14:14:50;46.80;;;34.20;;
37239;SDS011;23130;48.760;9.178;2022-08-19T14:17:15;41.88;;;32.28;;
37239;SDS011;23130;48.760;9.178;2022-08-19T14:19:42;41.17;;;31.25;;
37239;SDS011;23130;48.760;9.178;2022-08-19T14:22:08;36.28;;;28.58;;
37239;SDS011;23130;48.760;9.178;2022-08-19T14:24:34;35.65;;;28.17;;
37239;SDS011;23130;48.760;9.178;2022-08-19T14:27:03;37.38;;;28.15;;
37239;SDS011;23130;48.760;9.178;2022-08-19T14:29:29;38.20;;;27.48;;
37239;SDS011;23130;48.760;9.178;2022-08-19T14:31:55;33.75;;;27.13;;
37239;SDS011;23130;48.760;9.178;2022-08-19T14:34:23;29.55;;;23.83;;
37239;SDS011;23130;48.760;9.178;2022-08-19T14:36:49;30.48;;;24.67;;
37239;SDS011;23130;48.760;9.178;2022-08-19T14:39:15;29.10;;;24.27;;
37239;SDS011;23130;48.760;9.178;2022-08-19T14:41:41;30.80;;;25.70;;